Main page
METAR-TAF:

METAR-TAF

Airports :

Wallis, France

Hihifo Airport

latitude: 13-14S, longitude: 176-10W, elevation: 23 m

METAR: missing

Time: 03:41 (15:41 UTC)

Forecast

The report was made 4 hours and 41 minutes ago, at 11:00 UTC
Forecast valid from 23 at 12 UTC to 24 at 12 UTC
Wind 10 kt from the Northwest
Visibility 10 km or more
Scattered clouds at a height of 1500 ft
Broken clouds at a height of 2500 ft
Temporary
from 23 at 12 UTC to 23 at 24 UTC
Visibility: 2500 m
Broken clouds at a height of 1000 ft
Scattered clouds at a height of 1800 ft, Cumulonimbus.
heavy rain showers

TAF: NLWW 231100Z 2312/2412 32010KT 9999 SCT015 BKN025 TEMPO 2312/2324 2500 +SHRA BKN010 SCT018CB

Weather observations and forecasts of more than 4000 airports (METAR and TAF reports).

The available stations are represented by yellow and red dots on the map.

Hover mouse over dot to see the name of the station.

Then click to see weather observations and forecasts.

To change the map : click on the green buttons with a black cross to zoom in, on the green button with a dash to zoom out, or on the green arrows for adjacent maps.


METAR-TAF: